Tiempo atmosférico en la estación meteorológica de Jerez De Los Caballeros, Badajoz (381 m.)



Fecha
DESCASC
Temp. máxima en grados centígrados (hora)
DESCASC
Temp. mínima en grados centígrados (hora)
DESCASC
Temp. media en grados centígrados
DESCASC
Racha de viento máxima en m/sg (hora)
DESCASC
Velocidad máxima media en intervalos de 10 minutos(hora)
DESCASC
Precipitaciones diarias en mm
DESCASC
Precipitaciones de 00:00 a 06:00 en mm
DESCASC
Precipitaciones de 06:00 a 12:00 en mm
DESCASC
Precipitaciones de 12:00 a 18:00 en mm
DESCASC
Precipitaciones de 18:00 a 24:00 en mm
DESCASC
13-10-2019 28.8 (16:50) 12.6 (08:30) 20.7 11.11 (15:50) 7.22 (15:50) 0 0 0 0 0
12-10-2019 30.9 (16:10) 18.1 (08:10) 24.5 13.89 (16:40) 9.44 (16:40) 0 0 0 0 0
11-10-2019 29.7 (13:30) 13.6 (08:50) 21.7 8.33 (17:00) 6.11 (17:00) 0 0 0 0 0
10-10-2019 34.3 (16:20) 12.8 (00:00) 23.5 7.78 (16:50) 5.28 (18:50) 0 0 0 0 0
09-10-2019 32.8 (16:20) 15 (00:00) 23.9 8.33 (18:30) 5.83 (19:10) 0 0 0 0 0
08-10-2019 36.4 (16:20) 14.5 (00:00) 25.5 10 (18:30) 6.94 (18:30) 0 0 0 0 0
07-10-2019 35 (16:40) 11.7 (00:00) 23.3 7.5 (17:30) 5.28 (17:40) 0 0 0 0 0
06-10-2019 33.4 (15:30) 7.8 (00:00) 20.6 8.06 (16:20) 4.72 (19:10) 0 0 0 0 0
05-10-2019 29.2 (17:10) 11.2 (00:00) 20.2 7.5 (18:10) 5.28 (18:10) 0 0 0 0 0
04-10-2019 28.2 (17:20) 13.7 (00:00) 21 7.78 (14:30) 5.28 (14:30) 0 0 0 0 0
03-10-2019 30.3 (15:40) 10.4 (00:00) 20.3 11.11 (15:40) 7.22 (15:50) 0 0 0 0 0
02-10-2019 29.1 (17:00) 10.4 (00:00) 19.8 9.44 (17:50) 6.67 (00:10) 0 0 0 0 0
01-10-2019 27.7 (16:00) 14.2 (00:00) 21 13.89 (15:40) 8.89 (16:30) 0 0 0 0 0
30-09-2019 34.9 (15:20) 11.4 (00:00) 23.2 12.22 (17:10) 8.06 (17:40) 0 0 0 0 0
29-09-2019 34.2 (16:00) 11.6 (00:00) 22.9 8.61 (15:30) 5.56 (19:20) 0 0 0 0 0
28-09-2019 35 (15:50) 11.3 (00:00) 23.2 8.33 (19:50) 6.11 (20:10) 0 0 0 0 0
27-09-2019 33 (17:20) 11.8 (00:00) 22.4 8.06 (15:50) 5 (21:20) 0 0 0 0 0
26-09-2019 32.6 (16:10) 10.8 (00:00) 21.7 7.5 (19:00) 5 (19:50) 0 0 0 0 0
25-09-2019 28.3 (16:40) 12 (00:00) 20.1 8.06 (16:10) 4.72 (18:20) 0 0 0 0 0
24-09-2019 31.1 (15:20) 10.8 (00:00) 21 11.39 (22:40) 7.5 (22:50) 0 0 0 0 0
23-09-2019 29.3 (17:00) 9.8 (00:00) 19.5 7.5 (15:40) 5 (19:20) 0 0 0 0 0
22-09-2019 24.6 (17:20) 12.9 (00:00) 18.8 9.72 (00:40) 7.22 (00:30) 2.6 2.6 0 0 0
21-09-2019 25.1 (16:40) 15.3 (00:00) 20.2 13.33 (16:50) 8.89 (18:10) 0.4 0 0 0.4 0
20-09-2019 27.8 (14:30) 14 (00:00) 20.9 11.11 (16:00) 8.06 (16:00) 0 0 0 0 0
19-09-2019 32.3 (16:10) 12.8 (00:00) 22.5 9.44 (18:30) 6.67 (18:50) 0 0 0 0 0
18-09-2019 31.6 (15:30) 14.1 (00:00) 22.9 8.61 (16:10) 6.11 (19:20) 0 0 0 0 0
17-09-2019 35.3 (15:20) 15.8 (00:00) 25.5 12.5 (20:20) 8.33 (20:20) 0 0 0 0 0
16-09-2019 33 (16:10) 17.9 (00:00) 25.4 9.72 (15:40) 6.39 (15:40) 0 0 0 0 0
15-09-2019 31.9 (17:00) 14.5 (00:00) 23.2 9.17 (18:30) 6.67 (18:40) 0 0 0 0 0

Gráficas

Temp. máximas Temp. mínimas Temp. medias Precipitaciones Rachas de viento máximas Velocidades máximas media en intervalos de 10 minutos

Datos horarios

Fecha y hora oficial Temperatura (ºC) Velocidad del viento (km/h) Dirección del viento Racha (km/h) Dirección de racha Precipitación (mm) Presión (hPa) Tendencia (hPa) Humedad (%)
2019-10-14 23:00:00 12.1 10 Oeste 16 Noroeste 0 976.2 1.9 79
2019-10-14 22:00:00 12.4 11 Oeste 14 Oeste 0 975.5 2 83
2019-10-14 21:00:00 13.1 4 Sudoeste 10 Sudoeste 0 974.9 1.9 82
2019-10-14 20:00:00 13.7 6 Oeste 22 Sudoeste 0 974.3 1.6 77
2019-10-14 19:00:00 15.2 13 Sudoeste 30 Oeste 0.6 973.5 1.5 83
2019-10-14 18:00:00 15.2 14 Sudoeste 36 Oeste 0.2 973 2 83
2019-10-14 17:00:00 14.1 25 Oeste 54 Oeste 1.2 972.7 1.1 88
2019-10-14 16:00:00 14.5 40 Oeste 67 Oeste 0.4 972 -0.2 87
2019-10-14 15:00:00 20.1 34 Sudoeste 54 Sudoeste 0 971 -1.3 48
2019-10-14 14:00:00 21.2 33 Sudoeste 46 Sudoeste 0 971.6 -0.5 46
2019-10-14 13:00:00 19.2 31 Sudoeste 41 Sudoeste 0 972.2 0.7 53
2019-10-14 12:00:00 17.9 21 Sudoeste 31 Sudoeste 0 972.3 1.9 64
2019-10-14 11:00:00 16.5 16 Sudoeste 27 Sudoeste 0 972.1 2.6 76
2019-10-14 10:00:00 15 17 Sudoeste 32 Sudoeste 0 971.5 2.4 83
2019-10-14 09:00:00 13.7 29 Oeste 45 Oeste 0.8 970.4 2.6 86
2019-10-14 08:00:00 14.8 24 Sudoeste 35 Sudoeste 0.4 969.5 1.7 90
2019-10-14 07:00:00 15.6 19 Sudoeste 54 Sudoeste 0.4 969.1 1.3 89
2019-10-14 06:00:00 16.9 36 Sudoeste 60 Sudoeste 0.8 967.8 0.3 81
2019-10-14 05:00:00 16.7 16 Sudoeste 35 Sur 0 967.8 0.3 76
2019-10-14 04:00:00 16.6 26 Sudoeste 43 Sudoeste 0 967.8 -0.4 77
2019-10-14 03:00:00 17 20 Sudoeste 33 Oeste 0 967.5 -1 69
2019-10-14 02:00:00 17.8 6 Oeste 12 Oeste 0 967.5 -1.3 57
2019-10-14 01:00:00 19.1 10 Noroeste 14 Oeste 0 968.2 -0.5 49
2019-10-14 00:00:00 19.1 10 Sudoeste 14 Sudoeste 0 968.5 -0.1 44
2019-10-13 23:00:00 19.9 8 Sudoeste 15 Sudoeste 0 968.8 0.2 41
2019-10-13 22:00:00 21.3 8 Sudoeste 22 Sur 0 968.7 0.1 37
2019-10-13 21:00:00 23.3 12 Sur 18 Sur 0 968.6 0.1 33
2019-10-13 20:00:00 24.6 18 Sur 30 Sur 0 968.6 -0.2 32
2019-10-13 19:00:00 26.6 23 Sudoeste 33 Sudoeste 0 968.6 -0.8 31
2019-10-13 18:00:00 28 26 Sudoeste 36 Sudoeste 0 968.5 -1.6 27
2019-10-13 17:00:00 28.8 23 Sudoeste 39 Sudoeste 0 968.8 -2.1 27
2019-10-13 16:00:00 28.3 25 Sudoeste 40 Sudoeste 0 969.4 -2.4 27
2019-10-13 15:00:00 27.8 15 Sudoeste 30 Sudoeste 0 970.1 -2.3 30
2019-10-13 14:00:00 26.5 15 Sudoeste 25 Sudoeste 0 970.9 -1.7 33
2019-10-13 13:00:00 24.8 5 Sur 18 Sudoeste 0 971.8 -0.4 42
2019-10-13 12:00:00 22.4 5 Oeste 15 Sudoeste 0 972.4 0.4 51
2019-10-13 11:00:00 19.9 3 Sur 9 Este 0 972.6 0.8 59
2019-10-13 10:00:00 16.3 4 Nordeste 8 Nordeste 0 972.2 0.6 74
2019-10-13 09:00:00 13.4 3 Este 8 Este 0 972 0.7 86
2019-10-13 08:00:00 13.7 0 Calma 7 Nordeste 0 971.8 0.7 86
2019-10-13 07:00:00 13.8 4 Sur 5 Este 0 971.6 0.2 81
2019-10-13 06:00:00 15 5 Oeste 9 Oeste 0 971.3 -0.2 77
2019-10-13 05:00:00 15.6 6 Sudoeste 10 Sudoeste 0 971.1 -0.7 76
2019-10-13 04:00:00 16.5 5 Sudoeste 10 Sudoeste 0 971.4 -0.5 67
2019-10-13 03:00:00 17.1 8 Sudoeste 21 Sudoeste 0 971.5 -0.2 64
2019-10-13 02:00:00 18.2 14 Sudoeste 23 Sudoeste 0 971.8 0.4 61
2019-10-13 01:00:00 18.6 15 Sudoeste 29 Sudoeste 0 971.9 1.2 59
2019-10-13 00:00:00 18.5 13 Oeste 21 Oeste 0 971.7 1.3 59
2019-10-12 23:00:00 19.3 17 Oeste 29 Oeste 0 971.4 1.3 63
2019-10-12 22:00:00 20.7 7 Sudoeste 18 Sudoeste 0 970.7 0.9 62
2019-10-12 21:00:00 22.2 13 Sudoeste 25 Sur 0 970.4 0.6 56
2019-10-12 20:00:00 23.9 21 Sudoeste 33 Sur 0 970.1 0.6 45
2019-10-12 19:00:00 26.6 27 Sudoeste 39 Sudoeste 0 969.8 0.4 36
2019-10-12 18:00:00 28.1 30 Sur 46 Sur 0 969.8 -0.4 32
2019-10-12 17:00:00 29.7 23 Sur 50 Sudoeste 0 969.5 -1.5 30
2019-10-12 16:00:00 30.1 27 Sur 39 Sudoeste 0 969.4 -2.1 27
2019-10-12 15:00:00 28.9 26 Sudoeste 35 Sudoeste 0 970.2 -1.6 31
2019-10-12 14:00:00 28 13 Sudoeste 20 Sudoeste 0 971 -0.7 36
2019-10-12 13:00:00 25.5 6 Sudoeste 21 Sudoeste 0 971.5 0.4 44
2019-10-12 12:00:00 27.5 6 Sudoeste 14 Sudoeste 0 971.8 1 36
2019-10-12 11:00:00 22.6 5 Sudoeste 11 Sudoeste 0 971.7 1.1 51
2019-10-12 10:00:00 21.7 3 Sudeste 19 Nordeste 0 971.1 0.1 52
2019-10-12 09:00:00 19.4 9 Este 16 Este 0 970.8 -0.2 62
2019-10-12 08:00:00 18.4 9 Este 10 Este 0 970.6 -0.4 62
2019-10-12 07:00:00 18.5 9 Sudoeste 21 Oeste 0 971 -0.3 61
2019-10-12 06:00:00 20.1 12 Oeste 16 Oeste 0 971 -0.8 53
2019-10-12 05:00:00 20.5 7 Sudoeste 11 Este 0 971 -1 50
2019-10-12 04:00:00 21.8 7 Oeste 19 Sudoeste 0 971.3 -1.2 45
2019-10-12 03:00:00 22.6 6 Nordeste 12 Oeste 0 971.8 -1.2 42
2019-10-12 02:00:00 22.6 7 Este 16 Nordeste 0 972 -0.9 43
2019-10-12 01:00:00 22.5 9 Nordeste 12 Nordeste 0 972.5 -0.1 43
2019-10-12 00:00:00 23.2 5 Oeste 11 Oeste 0 973 0.6 42
2019-10-11 23:00:00 23.8 5 Sur 11 Este 0 972.9 0.4 39
2019-10-11 22:00:00 23.8 6 Este 11 Sur 0 972.6 0.5 38
2019-10-11 21:00:00 24.3 4 Sudoeste 13 Noroeste 0 972.4 0.3 37
2019-10-11 20:00:00 25 7 Oeste 10 Oeste 0 972.5 -0.1 34
2019-10-11 19:00:00 26.8 5 Oeste 18 Sudoeste 0 972.1 -0.7 30
2019-10-11 18:00:00 27.6 14 Sudoeste 30 Sur 0 972.1 -1.2 29
2019-10-11 17:00:00 27.7 22 Sudoeste 30 Sudoeste 0 972.6 -1.5 28
2019-10-11 16:00:00 29.4 14 Sudoeste 28 Sudoeste 0 972.8 -2 26
2019-10-11 15:00:00 29.4 5 Sur 11 Oeste 0 973.3 -1.9 28
2019-10-11 14:00:00 29.4 10 Sudoeste 14 Sudoeste 0 974.1 -1 28
2019-10-11 13:00:00 27.9 5 Sudoeste 11 Oeste 0 974.8 -0.2 34
2019-10-11 12:00:00 24 6 Este 11 Este 0 975.2 0.7 46
2019-10-11 11:00:00 19.6 8 Nordeste 9 Nordeste 0 975.1 0.9 55
2019-10-11 10:00:00 16.8 5 Sur 11 Este 0 975 1 66
2019-10-11 09:00:00 13.9 6 Sur 8 Sudoeste 0 974.5 1 74
2019-10-11 08:00:00 14.3 5 Sudoeste 7 Norte 0 974.2 0.6 71
2019-10-11 07:00:00 15.2 4 Nordeste 9 Este 0 974 0.2 68
2019-10-11 06:00:00 15.8 4 Este 10 Este 0 973.5 -0.4 66
2019-10-11 05:00:00 17.3 4 Sudeste 8 Este 0 973.6 -0.5 60
2019-10-11 04:00:00 17 7 Este 8 Este 0 973.8 -0.4 61
2019-10-11 03:00:00 19.6 4 Oeste 9 Noroeste 0 973.9 -0.1 57
2019-10-11 02:00:00 20.9 6 Oeste 12 Noroeste 0 974.1 0.5 55
2019-10-11 01:00:00 21.9 9 Oeste 19 Oeste 0 974.2 0.9 48
2019-10-11 00:00:00 22.9 8 Oeste 13 Sudoeste 0 974 1.1 41
2019-10-10 23:00:00 23 8 Este 11 Sudeste 0 973.6 1.2 40
2019-10-10 22:00:00 24.7 6 Este 17 Noroeste 0 973.3 1.3 36
2019-10-10 21:00:00 26.6 13 Noroeste 20 Noroeste 0 972.9 0.9 32
2019-10-10 20:00:00 27.8 13 Oeste 23 Oeste 0 972.4 0.3 29
2019-10-10 19:00:00 31.2 14 Oeste 26 Sudoeste 0 972 -0.3 24
2019-10-10 18:00:00 32.9 11 Sudoeste 26 Oeste 0 972 -0.6 22
2019-10-10 17:00:00 33.4 13 Sudoeste 28 Oeste 0 972.1 -1.3 21
2019-10-10 16:00:00 34.1 14 Sudoeste 26 Sur 0 972.3 -1.6 19
2019-10-10 15:00:00 34.1 12 Sudoeste 24 Sudoeste 0 972.6 -1.6 19
2019-10-10 14:00:00 32.5 13 Sudoeste 26 Sudoeste 0 973.4 -0.8 21
2019-10-10 13:00:00 30.9 9 Sudoeste 15 Sudoeste 0 973.9 0.2 20
2019-10-10 12:00:00 27.1 4 Este 9 Este 0 974.2 1.1 21
2019-10-10 11:00:00 22.1 5 Este 12 Este 0 974.2 1.3 31
2019-10-10 10:00:00 17.8 9 Este 16 Nordeste 0 973.7 1.1 41
2019-10-10 09:00:00 14.1 5 Este 12 Este 0 973.1 0.5 50
2019-10-10 08:00:00 12.8 6 Este 9 Este 0 972.9 0.3 55
2019-10-10 07:00:00 13.1 4 Este 10 Este 0 972.6 -0.2 52
2019-10-10 06:00:00 13.3 6 Este 11 Este 0 972.6 -0.6 52
2019-10-10 05:00:00 14.1 6 Este 10 Este 0 972.6 -0.6 53
2019-10-10 04:00:00 15.7 6 Este 7 Este 0 972.8 -0.6 49
2019-10-10 03:00:00 16.1 5 Nordeste 7 Este 0 973.2 -0.2 47
2019-10-10 02:00:00 18.8 6 Oeste 7 Noroeste 0 973.2 -0.1 39
2019-10-10 01:00:00 18.7 2 Este 15 Noroeste 0 973.4 0.4 39
2019-10-10 00:00:00 20.8 4 Norte 12 Sudeste 0 973.4 1 34
2019-10-09 23:00:00 22.2 6 Nordeste 13 Nordeste 0 973.3 1.2 31
2019-10-09 22:00:00 23.5 4 Nordeste 19 Noroeste 0 973 1.4 29
2019-10-09 21:00:00 24.8 13 Noroeste 20 Noroeste 0 972.4 1 24
2019-10-09 20:00:00 26.4 14 Oeste 28 Oeste 0 972.1 0.5 29
2019-10-09 19:00:00 29.1 19 Oeste 30 Oeste 0 971.6 -0.4 28
2019-10-09 18:00:00 30.4 17 Oeste 26 Oeste 0 971.4 -1 26
2019-10-09 17:00:00 32.4 13 Sudoeste 25 Sudoeste 0 971.6 -1.3 25
2019-10-09 16:00:00 32.1 15 Sudoeste 25 Oeste 0 972 -1.6 28
2019-10-09 15:00:00 29.8 12 Oeste 26 Oeste 0 972.4 -1.6 34
2019-10-09 14:00:00 29.1 9 Oeste 18 Sur 0 972.9 -1.2 37
2019-10-09 13:00:00 27.2 5 Oeste 14 Este 0 973.6 -0.2 43
2019-10-09 12:00:00 23.7 5 Este 12 Este 0 974 0.7 55
2019-10-09 11:00:00 20.6 6 Este 11 Este 0 974.1 1.4 66
2019-10-09 10:00:00 18.5 4 Sur 10 Oeste 0 973.8 1.1 75
2019-10-09 09:00:00 15.5 7 Oeste 11 Oeste 0 973.3 0.8 86
2019-10-09 08:00:00 15.6 7 Oeste 13 Sudoeste 0 972.7 0.5 85
2019-10-09 07:00:00 16 5 Sudoeste 15 Sudoeste 0 972.7 0.2 82
2019-10-09 06:00:00 16.4 8 Sudoeste 12 Sudoeste 0 972.5 -0.2 79
2019-10-09 05:00:00 17.3 7 Sudoeste 10 Sudoeste 0 972.2 -0.8 76
2019-10-09 04:00:00 18.9 8 Oeste 19 Oeste 0 972.5 -0.7 71
2019-10-09 03:00:00 20.1 6 Oeste 11 Sur 0 972.7 -0.7 66
2019-10-09 02:00:00 20.6 8 Oeste 18 Oeste 0 973 -0.2 61
2019-10-09 01:00:00 22.3 12 Noroeste 15 Oeste 0 973.2 0.9 53
2019-10-09 00:00:00 23 4 Sudoeste 13 Sur 0 973.4 1.3 46
2019-10-08 23:00:00 25.3 4 Sudoeste 24 Oeste 0 973.2 1.4 33
2019-10-08 22:00:00 26.3 6 Oeste 24 Oeste 0 972.3 0.7 25
2019-10-08 21:00:00 27.5 15 Oeste 21 Oeste 0 972.1 0.5 23
2019-10-08 20:00:00 29.8 17 Oeste 27 Oeste 0 971.8 0.2 20
2019-10-08 19:00:00 32.6 20 Oeste 36 Sudoeste 0 971.6 -0.4 17
2019-10-08 18:00:00 34.3 24 Sudoeste 32 Oeste 0 971.6 -0.7 15
2019-10-08 17:00:00 36 8 Sur 21 Sudoeste 0 971.6 -1.5 13
2019-10-08 16:00:00 35.7 4 Oeste 20 Sudoeste 0 972 -1.8 13
2019-10-08 15:00:00 34.6 14 Oeste 24 Sudoeste 0 972.3 -1.9 14
2019-10-08 14:00:00 35.7 5 Sur 18 Sudoeste 0 973.1 -1.4 14
2019-10-08 13:00:00 33.5 10 Sudoeste 16 Sudoeste 0 973.8 -0.5 16
2019-10-08 12:00:00 28.9 0 Calma 8 Este 0 974.2 0.4 21
2019-10-08 11:00:00 23.1 4 Este 10 Este 0 974.5 0.9 29
2019-10-08 10:00:00 19.9 3 Este 10 Este 0 974.3 1.2 36
2019-10-08 09:00:00 15.3 3 Nordeste 12 Este 0 973.8 0.7 47
2019-10-08 08:00:00 15.2 4 Sudoeste 7 Sudoeste 0 973.6 0.5 48
2019-10-08 07:00:00 15.9 5 Este 13 Este 0 973.1 -0.2 47
2019-10-08 06:00:00 15.7 5 Sudeste 14 Sudeste 0 973.1 -0.5 47
2019-10-08 05:00:00 17.5 2 Sudeste 15 Este 0 973.1 -0.5 40
2019-10-08 04:00:00 17 9 Nordeste 13 Este 0 973.3 -0.6 42
2019-10-08 03:00:00 19.7 7 Este 13 Sudeste 0 973.6 -0.4 35
2019-10-08 02:00:00 18.8 8 Sur 14 Este 0 973.6 -0.4 37
2019-10-08 01:00:00 21.7 5 Nordeste 8 Nordeste 0 973.9 0.3 29
2019-10-08 00:00:00 22.4 5 Nordeste 9 Sudeste 0 974 0.6 28
2019-10-07 23:00:00 24.2 4 Este 10 Oeste 0 974 0.7 25
2019-10-07 22:00:00 26.6 4 Norte 10 Noroeste 0 973.6 0.7 21
2019-10-07 21:00:00 27.3 7 Norte 18 Norte 0 973.4 0.7 20
2019-10-07 20:00:00 29 13 Norte 24 Norte 0 973.3 0.4 19
2019-10-07 19:00:00 31.3 15 Norte 23 Norte 0 972.9 -0.4 17
2019-10-07 18:00:00 32.9 15 Este 27 Nordeste 0 972.7 -1.1 16
2019-10-07 17:00:00 33.8 14 Este 21 Este 0 972.9 -1.6 15
2019-10-07 16:00:00 34.1 7 Sudeste 18 Sudeste 0 973.3 -1.8 16
2019-10-07 15:00:00 33.4 5 Este 15 Sudeste 0 973.8 -1.6 16
2019-10-07 14:00:00 31.8 7 Este 13 Este 0 974.5 -0.8 18
2019-10-07 13:00:00 29.1 7 Este 13 Este 0 975.1 0 24
2019-10-07 12:00:00 26.6 3 Sudoeste 9 Este 0 975.4 0.6 28
2019-10-07 11:00:00 20.6 4 Nordeste 10 Este 0 975.3 0.4 39
2019-10-07 10:00:00 15.7 2 Sudeste 8 Sudeste 0 975.1 0.7 52
2019-10-07 09:00:00 13.4 0 Calma 9 Nordeste 0 974.8 0.6 58
2019-10-07 08:00:00 11.8 9 Este 13 Este 0 974.9 0.6 64
2019-10-07 07:00:00 13.6 5 Este 10 Este 0 974.4 -0.2 54
2019-10-07 06:00:00 13.8 7 Este 9 Este 0 974.2 -1 53
2019-10-07 05:00:00 15.6 0 Calma 6 Nordeste 0 974.3 -1.2 49
2019-10-07 04:00:00 16.8 0 Calma 9 Nordeste 0 974.6 -1.2 46
2019-10-07 03:00:00 18.4 3 Oeste 7 Sudoeste 0 975.2 -0.7 41
2019-10-07 02:00:00 17.6 3 Sudeste 8 Sudeste 0 975.5 -0.1 39
2019-10-07 01:00:00 18.7 7 Sudeste 13 Este 0 975.8 0.4 36
2019-10-07 00:00:00 19.6 6 Este 9 Este 0 975.9 0.8 32
2019-10-06 23:00:00 21.3 7 Sudeste 9 Este 0 975.6 0.9 28
2019-10-06 22:00:00 22.5 5 Este 9 Nordeste 0 975.4 0.9 26
2019-10-06 21:00:00 24.9 7 Nordeste 18 Noroeste 0 975.1 0.8 22
2019-10-06 20:00:00 26.5 12 Noroeste 24 Noroeste 0 974.7 0.4 20
2019-10-06 19:00:00 28.8 17 Noroeste 26 Norte 0 974.5 -0.1 18
2019-10-06 18:00:00 30.4 10 Noroeste 23 Norte 0 974.3 -0.8 14
2019-10-06 17:00:00 30.3 13 Norte 29 Sudoeste 0 974.3 -1.5 17
2019-10-06 16:00:00 32.1 15 Sudoeste 27 Sudoeste 0 974.6 -1.4 16
2019-10-06 15:00:00 32.5 4 Sudeste 16 Sudoeste 0 975.1 -1.1 18
2019-10-06 14:00:00 31 6 Sudeste 15 Sudeste 0 975.8 -0.5 19
2019-10-06 13:00:00 28.2 9 Este 18 Este 0 976 0 24
2019-10-06 12:00:00 23.3 8 Este 14 Este 0 976.2 0.9 37
2019-10-06 11:00:00 17.2 7 Este 11 Este 0 976.3 1.5 53
2019-10-06 10:00:00 13.3 4 Sudeste 13 Este 0 976 1.6 66
2019-10-06 09:00:00 10.1 9 Este 14 Este 0 975.3 0.7 79
2019-10-06 08:00:00 8.2 9 Sudeste 11 Este 0 974.8 0.3 83
2019-10-06 07:00:00 9.9 8 Este 11 Este 0 974.4 -0.2 80
2019-10-06 06:00:00 10.3 4 Este 10 Este 0 974.6 -0.2 82
2019-10-06 05:00:00 11.4 6 Oeste 10 Este 0 974.5 -0.4 77
2019-10-06 04:00:00 13.4 5 Sur 10 Sudeste 0 974.6 -0.3 67
2019-10-06 03:00:00 14.2 4 Sudoeste 9 Sudoeste 0 974.8 0.5 68
2019-10-06 02:00:00 13.5 3 Sudeste 17 Oeste 0 974.9 0.7 67
2019-10-06 01:00:00 16 10 Oeste 16 Oeste 0 974.9 1.1 60
2019-10-06 00:00:00 16.9 9 Este 10 Este 0 974.3 0.8 55
2019-10-05 23:00:00 18 5 Este 8 Este 0 974.2 0.9 52
2019-10-05 22:00:00 20.2 4 Sudeste 7 Oeste 0 973.8 1 46
2019-10-05 21:00:00 21.1 7 Oeste 14 Oeste 0 973.5 0.8 44
2019-10-05 20:00:00 23.3 12 Oeste 23 Sudoeste 0 973.3 0.5 37
2019-10-05 19:00:00 25.4 14 Oeste 27 Oeste 0 972.8 -0.2 30
2019-10-05 18:00:00 27.4 16 Oeste 21 Oeste 0 972.7 -0.7 18
2019-10-05 17:00:00 28.5 12 Sudoeste 25 Oeste 0 972.8 -1 20
2019-10-05 16:00:00 25.9 15 Oeste 24 Oeste 0 973 -1 25
2019-10-05 15:00:00 24.4 16 Sudoeste 25 Sudoeste 0 973.4 -0.7 30
2019-10-05 14:00:00 22.7 17 Sudoeste 22 Sudoeste 0 973.8 -0.2 42
2019-10-05 13:00:00 24.2 12 Sudoeste 20 Sudoeste 0 974 0.5 40
2019-10-05 12:00:00 21.1 9 Sudoeste 15 Sudoeste 0 974.1 1 54
2019-10-05 11:00:00 17.9 5 Sur 9 Sudoeste 0 974 1.3 64
2019-10-05 10:00:00 14.6 2 Oeste 5 Este 0 973.5 1 76
2019-10-05 09:00:00 11.6 4 Este 5 Este 0 973.1 0.5 88
2019-10-05 08:00:00 11.3 2 Sudeste 5 Norte 0 972.7 0 88
2019-10-05 07:00:00 12.3 0 Calma 5 Sudoeste 0 972.5 -0.5 84
2019-10-05 06:00:00 13.4 5 Sudoeste 8 Oeste 0 972.6 -0.6 80
2019-10-05 05:00:00 13.9 5 Oeste 10 Sudoeste 0 972.7 -0.4 77
2019-10-05 04:00:00 14.8 8 Oeste 10 Oeste 0 973 -0.3 76
2019-10-05 03:00:00 15.5 6 Oeste 13 Sudoeste 0 973.2 0.1 73
2019-10-05 02:00:00 16.7 5 Sudoeste 18 Oeste 0 973.1 0.2 70
2019-10-05 01:00:00 17.7 5 Oeste 14 Sudoeste 0 973.3 0.4 67
2019-10-05 00:00:00 18.9 11 Sudoeste 14 Sudoeste 0 973.1 0.4 62
2019-10-04 23:00:00 20.5 5 Noroeste 11 Noroeste 0 972.9 0.5 57
2019-10-04 22:00:00 21.4 4 Sudoeste 10 Noroeste 0 972.9 0.7 52
2019-10-04 21:00:00 22.8 8 Oeste 13 Oeste 0 972.7 0.2 47
2019-10-04 20:00:00 24.7 12 Oeste 19 Sudoeste 0 972.4 -0.3 40
2019-10-04 19:00:00 27.1 12 Oeste 21 Sudoeste 0 972.2 -1.1 33
2019-10-04 18:00:00 26.7 12 Oeste 24 Oeste 0 972.5 -1.5 34
2019-10-04 17:00:00 27.8 11 Sudoeste 23 Oeste 0 972.7 -2 36
2019-10-04 16:00:00 27.1 9 Sudoeste 27 Oeste 0 973.3 -2 40
2019-10-04 15:00:00 24.9 17 Sudoeste 28 Sudoeste 0 974 -1.6 49
2019-10-04 14:00:00 23.9 17 Sudoeste 28 Sudoeste 0 974.7 -1 53
2019-10-04 13:00:00 21.9 15 Sudoeste 24 Sudoeste 0 975.3 0.2 59
2019-10-04 12:00:00 19 10 Sudoeste 15 Sudoeste 0 975.6 0.6 71
2019-10-04 11:00:00 16.8 6 Sudoeste 11 Sudoeste 0 975.7 1.1 81
2019-10-04 10:00:00 15.8 4 Sudoeste 12 Sudoeste 0 975.1 0.6 88
2019-10-04 09:00:00 14.9 8 Sudoeste 15 Oeste 0 975 0.6 89
2019-10-04 08:00:00 14.2 8 Oeste 10 Oeste 0 974.6 0 89
2019-10-04 07:00:00 13.7 5 Sudoeste 12 Oeste 0 974.5 -0.3 87
2019-10-04 06:00:00 14.6 6 Oeste 12 Oeste 0 974.4 -0.9 85
2019-10-04 05:00:00 15.1 11 Oeste 14 Oeste 0 974.6 -0.8 81
2019-10-04 04:00:00 15.6 4 Sudoeste 19 Sudoeste 0 974.8 -0.7 79
2019-10-04 03:00:00 16.5 12 Sudoeste 16 Sudoeste 0 975.3 -0.1 74
2019-10-04 02:00:00 17 11 Sudoeste 19 Sudoeste 0 975.4 0.2 60
2019-10-04 01:00:00 18.9 8 Sudoeste 16 Sudoeste 0 975.5 0.5 56
2019-10-04 00:00:00 19.4 7 Sudoeste 13 Oeste 0 975.4 0.6 38
2019-10-03 23:00:00 21.1 10 Oeste 17 Oeste 0 975.2 0.5 27
2019-10-03 22:00:00 22.2 14 Oeste 18 Noroeste 0 975 0.5 22
2019-10-03 21:00:00 23.3 12 Oeste 16 Oeste 0 974.8 0.2 23
2019-10-03 20:00:00 26.1 15 Oeste 30 Oeste 0 974.7 -0.1 17
2019-10-03 19:00:00 28.4 17 Oeste 27 Oeste 0 974.5 -0.4 18
2019-10-03 18:00:00 29.3 17 Oeste 34 Noroeste 0 974.6 -0.6 16
2019-10-03 17:00:00 29.3 22 Oeste 37 Oeste 0 974.8 -1.1 19
2019-10-03 16:00:00 29.4 26 Oeste 40 Sudoeste 0 974.9 -1.6 21
2019-10-03 15:00:00 28.4 14 Oeste 31 Sur 0 975.2 -1.7 24
2019-10-03 14:00:00 28.4 14 Sudoeste 20 Sudoeste 0 975.9 -0.9 26
2019-10-03 13:00:00 26 7 Sudoeste 14 Sudoeste 0 976.5 0.1 33
2019-10-03 12:00:00 21.6 5 Sudoeste 10 Sudoeste 0 976.9 0.7 45
2019-10-03 11:00:00 17.5 5 Este 10 Este 0 976.8 0.9 59
2019-10-03 10:00:00 13.2 6 Este 10 Este 0 976.4 0.8 67
2019-10-03 09:00:00 11.8 4 Sudoeste 9 Oeste 0 976.2 0.9 76
2019-10-03 08:00:00 10.4 6 Sudoeste 9 Oeste 0 975.9 0.7 79
2019-10-03 07:00:00 12 3 Sur 11 Oeste 0 975.6 0.4 73
2019-10-03 06:00:00 13 8 Oeste 11 Oeste 0 975.3 0.1 69
2019-10-03 05:00:00 13.9 7 Oeste 10 Sudoeste 0 975.2 -0.3 64
2019-10-03 04:00:00 13.9 6 Oeste 13 Sudoeste 0 975.2 -0.3 62
2019-10-03 03:00:00 15.4 5 Oeste 12 Sudoeste 0 975.2 -0.2 54
2019-10-03 02:00:00 15.8 11 Sudoeste 21 Sudoeste 0 975.5 0.2 52
2019-10-03 01:00:00 17.1 4 Sudoeste 11 Sudoeste 0 975.5 0.7 45
2019-10-03 00:00:00 17.9 3 Sudeste 9 Sur 0 975.4 0.9 40
2019-10-02 23:00:00 19.5 5 Oeste 23 Noroeste 0 975.3 1.2 38
2019-10-02 22:00:00 20.9 14 Oeste 17 Oeste 0 974.8 1 30
2019-10-02 21:00:00 22.4 6 Oeste 20 Oeste 0 974.5 0.7 26
2019-10-02 20:00:00 24.6 13 Oeste 30 Oeste 0 974.1 0.1 20
2019-10-02 19:00:00 27.2 19 Oeste 31 Sudoeste 0 973.8 -0.4 19
2019-10-02 18:00:00 28.6 22 Sudoeste 34 Sudoeste 0 973.8 -0.7 16
2019-10-02 17:00:00 29 19 Sudoeste 34 Oeste 0 974 -1.2 19
2019-10-02 16:00:00 28.1 16 Oeste 31 Sudoeste 0 974.2 -1.6 22
2019-10-02 15:00:00 26.9 21 Sudoeste 32 Sudoeste 0 974.5 -1.6 27
2019-10-02 14:00:00 25.1 13 Sur 23 Sudoeste 0 975.2 -0.8 34
2019-10-02 13:00:00 22.6 11 Sudoeste 20 Sudoeste 0 975.8 0.5 46
2019-10-02 12:00:00 19.1 12 Sur 20 Sudoeste 0 976.1 1.3 59
2019-10-02 11:00:00 17 9 Sudoeste 16 Oeste 0 976 1.4 68
2019-10-02 10:00:00 12.8 12 Sudoeste 17 Oeste 0 975.3 1 87
2019-10-02 09:00:00 11.7 6 Sudoeste 16 Sudoeste 0 974.8 0.5 91
2019-10-02 08:00:00 11.2 10 Oeste 17 Oeste 0 974.6 0.2 91
2019-10-02 07:00:00 11.3 6 Oeste 13 Oeste 0 974.3 -0.5 87
2019-10-02 06:00:00 12.2 4 Noroeste 8 Noroeste 0 974.3 -0.8 85
2019-10-02 05:00:00 12.6 4 Sudoeste 12 Sudoeste 0 974.4 -0.9 83
2019-10-02 04:00:00 13.7 8 Oeste 14 Sudoeste 0 974.8 -0.5 79
2019-10-02 03:00:00 14.7 12 Sudoeste 26 Oeste 0 975.1 0 73
2019-10-02 02:00:00 15.9 8 Sudoeste 31 Oeste 0 975.3 0.7 69
2019-10-02 01:00:00 17.7 19 Oeste 33 Oeste 0 975.3 1.3 62
2019-10-02 00:00:00 18.3 22 Oeste 29 Oeste 0 975.1 1.5 55
2019-10-01 23:00:00 19.5 19 Oeste 26 Oeste 0 974.6 1.4 48
2019-10-01 22:00:00 20.5 15 Oeste 19 Oeste 0 974 1 46
2019-10-01 21:00:00 22.5 8 Oeste 30 Oeste 0 973.6 0.8 42
2019-10-01 20:00:00 24.4 23 Oeste 39 Oeste 0 973.2 0.5 37
2019-10-01 19:00:00 25.9 22 Oeste 43 Oeste 0 973 0.3 33
2019-10-01 18:00:00 27.1 21 Oeste 42 Oeste 0 972.8 -0.5 32
2019-10-01 17:00:00 26.4 26 Oeste 43 Oeste 0 972.7 -0.9 36
2019-10-01 16:00:00 27.6 28 Oeste 50 Oeste 0 972.7 -1.1 34
2019-10-01 15:00:00 25.5 25 Oeste 42 Oeste 0 973.3 -1 40
2019-10-01 14:00:00 25.9 27 Oeste 39 Oeste 0 973.6 -0.6 34
2019-10-01 13:00:00 23.6 21 Noroeste 40 Oeste 0 973.8 0.2 43
2019-10-01 12:00:00 21.3 19 Oeste 35 Oeste 0 974.3 1.5 54
2019-10-01 11:00:00 18.4 25 Oeste 34 Oeste 0 974.2 1.8 69
2019-10-01 10:00:00 17 19 Oeste 30 Oeste 0 973.6 1.6 76
2019-10-01 09:00:00 16.1 18 Oeste 27 Oeste 0 972.8 1 81
2019-10-01 08:00:00 15.1 7 Oeste 13 Sudoeste 0 972.4 0.7 77
2019-10-01 07:00:00 15 12 Sudoeste 14 Sudoeste 0 972 0.3 68
2019-10-01 06:00:00 15.9 9 Sudoeste 18 Oeste 0 971.8 -0.4 60
2019-10-01 05:00:00 17.4 15 Oeste 23 Sudoeste 0 971.7 -0.6 58
2019-10-01 04:00:00 18.6 10 Oeste 11 Oeste 0 971.7 -0.8 51
2019-10-01 03:00:00 19 8 Oeste 10 Oeste 0 972.2 0 47
2019-10-01 02:00:00 19.7 6 Oeste 12 Oeste 0 972.3 0.4 44
2019-10-01 01:00:00 20.2 12 Oeste 15 Oeste 0 972.5 0.9 39
2019-10-01 00:00:00 21 11 Oeste 15 Oeste 0 972.2 1.1 33
2019-09-30 23:00:00 22.6 10 Oeste 24 Sudoeste 0 971.9 1 30
2019-09-30 22:00:00 24.9 13 Sudoeste 20 Sudoeste 0 971.6 0.8 27
2019-09-30 21:00:00 26.4 6 Sudoeste 19 Oeste 0 971.1 -0.1 22
2019-09-30 20:00:00 29.3 17 Oeste 29 Oeste 0 970.9 -0.6 16
2019-09-30 19:00:00 31.8 22 Oeste 36 Sudoeste 0 970.8 -1.1 13
2019-09-30 18:00:00 32.9 26 Sudoeste 44 Sudoeste 0 971.2 -1 12
2019-09-30 17:00:00 33.4 25 Oeste 39 Oeste 0 971.5 -1.7 13
2019-09-30 16:00:00 34.2 22 Sudoeste 36 Sudoeste 0 971.9 -1.8 13
2019-09-30 15:00:00 34.5 18 Sudoeste 30 Sudoeste 0 972.2 -2 12
2019-09-30 14:00:00 33.8 13 Sudoeste 27 Oeste 0 973.2 -1.1 12
2019-09-30 13:00:00 31.5 8 Sudoeste 13 Sudoeste 0 973.7 -0.3 14
2019-09-30 12:00:00 26.1 4 Este 12 Este 0 974.2 0.4 22
2019-09-30 11:00:00 20.1 8 Este 11 Este 0 974.3 0.7 32
2019-09-30 10:00:00 15.8 4 Este 7 Este 0 974 0.5 42
2019-09-30 09:00:00 12.5 4 Sudeste 12 Este 0 973.8 0.4 52
2019-09-30 08:00:00 12.2 5 Este 10 Este 0 973.6 0.1 51
2019-09-30 07:00:00 12.7 8 Sudeste 10 Sudeste 0 973.5 -0.5 49
2019-09-30 06:00:00 13.6 6 Sudoeste 7 Sudoeste 0 973.4 -0.9 43
2019-09-30 05:00:00 15.3 6 Nordeste 13 Este 0 973.5 -0.8 38
2019-09-30 04:00:00 15.1 7 Este 9 Sudeste 0 974 -0.4 38
2019-09-30 03:00:00 17.2 3 Este 8 Este 0 974.3 0.1 32
2019-09-30 02:00:00 17.6 9 Este 11 Este 0 974.3 0 31
2019-09-30 01:00:00 19.5 3 Noroeste 7 Sudoeste 0 974.4 0.4 29
2019-09-30 00:00:00 20.9 4 Este 7 Este 0 974.2 0.9 27
2019-09-29 23:00:00 22.1 0 Calma 10 Noroeste 0 974.3 1.3 25
2019-09-29 22:00:00 24.6 9 Noroeste 21 Noroeste 0 974 1.1 18
2019-09-29 21:00:00 25.4 15 Oeste 24 Oeste 0 973.3 0.2 19
2019-09-29 20:00:00 28.5 18 Oeste 27 Sudoeste 0 973 -0.4 17
2019-09-29 19:00:00 31.2 18 Sudoeste 30 Sudoeste 0 972.9 -0.7 15
2019-09-29 18:00:00 32 17 Oeste 27 Sudoeste 0 973.1 -1 15
2019-09-29 17:00:00 33.7 12 Sudoeste 30 Oeste 0 973.4 -1.5 14
2019-09-29 16:00:00 33.5 15 Sudoeste 31 Sudoeste 0 973.6 -1.5 14
2019-09-29 15:00:00 32.4 15 Oeste 31 Sudoeste 0 974.1 -1.1 16
2019-09-29 14:00:00 32.9 10 Sudoeste 20 Sudoeste 0 974.9 -0.3 15
2019-09-29 13:00:00 31.6 6 Sudoeste 12 Sudoeste 0 975.1 0.1 19
2019-09-29 12:00:00 27.8 6 Este 13 Este 0 975.2 0.7 24
2019-09-29 11:00:00 21.6 7 Este 12 Este 0 975.2 0.8 34
2019-09-29 10:00:00 16.7 5 Este 12 Este 0 975 1.1 47
2019-09-29 09:00:00 13 11 Este 13 Este 0 974.5 0.4 57
2019-09-29 08:00:00 11.7 3 Sudeste 9 Este 0 974.4 0.4 63
2019-09-29 07:00:00 13.7 8 Este 12 Este 0 973.9 -0.5 53
2019-09-29 06:00:00 12.9 5 Sudeste 8 Este 0 974.1 -0.6 59
2019-09-29 05:00:00 14.9 9 Este 12 Este 0 974 -0.4 50
2019-09-29 04:00:00 16.9 2 Nordeste 5 Nordeste 0 974.4 -0.2 41
2019-09-29 03:00:00 17 2 Nordeste 4 Sudoeste 0 974.7 -0.1 40
2019-09-29 02:00:00 18.7 0 Calma 7 Este 0 974.4 -0.1 34
2019-09-29 01:00:00 20.7 3 Sur 7 Sudoeste 0 974.6 0.3 29
2019-09-29 00:00:00 21.8 4 Sur 10 Sudoeste 0 974.8 1.2 28
2019-09-28 23:00:00 23.4 6 Sudoeste 8 Sudoeste 0 974.5 1.4 25
2019-09-28 22:00:00 24.6 4 Oeste 19 Oeste 0 974.3 1.2 23
2019-09-28 21:00:00 26.2 17 Oeste 28 Oeste 0 973.6 0.6 22
2019-09-28 20:00:00 29.2 21 Oeste 30 Sudoeste 0 973.1 -0.2 20
2019-09-28 19:00:00 32.3 18 Sudoeste 24 Sudoeste 0 973.1 -0.5 18
2019-09-28 18:00:00 33.8 14 Sudoeste 27 Oeste 0 973 -1.2 16
2019-09-28 17:00:00 34.8 14 Sudoeste 26 Sudoeste 0 973.3 -1.6 14
2019-09-28 16:00:00 34.7 12 Sudoeste 29 Sudoeste 0 973.6 -1.9 14
2019-09-28 15:00:00 34.8 9 Oeste 21 Sudoeste 0 974.2 -1.8 14
2019-09-28 14:00:00 34.2 6 Sudoeste 12 Oeste 0 974.9 -1.1 15
2019-09-28 13:00:00 31.8 5 Sudoeste 12 Este 0 975.5 -0.4 18
2019-09-28 12:00:00 27.9 4 Sur 12 Sudeste 0 976 0.5 28
2019-09-28 11:00:00 22.2 5 Este 8 Este 0 976 0.9 39
2019-09-28 10:00:00 16.2 5 Este 8 Este 0 975.9 1 55
2019-09-28 09:00:00 13.6 3 Sudeste 8 Nordeste 0 975.5 0.5 62
2019-09-28 08:00:00 11.5 3 Este 12 Este 0 975.1 0.2 71
2019-09-28 07:00:00 12.6 9 Este 12 Este 0 974.9 -0.4 64
2019-09-28 06:00:00 13.1 5 Este 6 Este 0 975 -0.3 65
2019-09-28 05:00:00 14.8 2 Sudeste 7 Este 0 974.9 -0.8 50
2019-09-28 04:00:00 15.6 6 Este 8 Este 0 975.3 -0.6 46
2019-09-28 03:00:00 17.4 2 Sur 7 Sudoeste 0 975.3 -0.3 41
2019-09-28 02:00:00 18.8 6 Sudoeste 7 Sudoeste 0 975.7 0.4 35
2019-09-28 01:00:00 18.8 3 Este 8 Nordeste 0 975.9 1.1 33
2019-09-28 00:00:00 19.9 5 Nordeste 9 Sur 0 975.6 1.2 31
2019-09-27 23:00:00 22.7 5 Sudeste 12 Noroeste 0 975.3 1.3 26
2019-09-27 22:00:00 24.9 10 Noroeste 26 Noroeste 0 974.8 0.9 21
2019-09-27 21:00:00 26.5 13 Noroeste 22 Noroeste 0 974.4 0.4 24
2019-09-27 20:00:00 28.1 12 Noroeste 27 Oeste 0 974 -0.1 17
2019-09-27 19:00:00 30.6 14 Oeste 25 Oeste 0 973.9 -0.4 14
2019-09-27 18:00:00 31.8 12 Oeste 25 Sudoeste 0 974 -0.8 13
2019-09-27 17:00:00 32.1 13 Oeste 28 Sudoeste 0 974.1 -1.4 14
2019-09-27 16:00:00 32.6 14 Sudoeste 29 Oeste 0 974.3 -1.4 16
2019-09-27 15:00:00 32 15 Sudoeste 28 Sudoeste 0 974.8 -1.2 18
2019-09-27 14:00:00 31.7 6 Sudoeste 23 Sudoeste 0 975.5 -0.6 22
2019-09-27 13:00:00 29.4 4 Noroeste 11 Sur 0 975.7 0.2 25
2019-09-27 12:00:00 27.5 4 Sudoeste 8 Este 0 976 0.5 29
2019-09-27 11:00:00 22.4 3 Sur 9 Sudeste 0 976.1 0.8 39
2019-09-27 10:00:00 16.4 6 Este 10 Este 0 975.5 0.3 57
2019-09-27 09:00:00 13.2 4 Este 9 Este 0 975.5 0.3 69
2019-09-27 08:00:00 12.3 7 Este 11 Este 0 975.3 0.1 72
2019-09-27 07:00:00 13 3 Sudeste 5 Este 0 975.2 -0.2 66
2019-09-27 06:00:00 13.8 4 Sudoeste 6 Nordeste 0 975.2 -0.3 61
2019-09-27 05:00:00 15.2 2 Nordeste 5 Nordeste 0 975.2 -0.3 56
2019-09-27 04:00:00 16 0 Calma 5 Sudeste 0 975.4 -0.1 53
2019-09-27 03:00:00 17.1 0 Calma 5 Este 0 975.5 0.2 50
2019-09-27 02:00:00 18.2 3 Nordeste 10 Este 0 975.5 0.4 45
2019-09-27 01:00:00 18.9 8 Este 12 Este 0 975.5 0.7 44
2019-09-27 00:00:00 20.9 6 Este 10 Noroeste 0 975.3 1.1 38
2019-09-26 23:00:00 21.7 4 Oeste 8 Nordeste 0 975.1 1.2 34
2019-09-26 22:00:00 23.3 3 Sudoeste 17 Noroeste 0 974.8 1.1 30
2019-09-26 21:00:00 25.3 13 Noroeste 23 Oeste 0 974.2 0.6 27
2019-09-26 20:00:00 27.6 16 Oeste 24 Oeste 0 973.9 0 25
2019-09-26 19:00:00 30.3 17 Oeste 27 Oeste 0 973.7 -0.5 21
2019-09-26 18:00:00 30.6 12 Oeste 22 Oeste 0 973.6 -1 18
2019-09-26 17:00:00 32.2 9 Sudoeste 24 Sudoeste 0 973.9 -1.3 17
2019-09-26 16:00:00 31.7 5 Sur 25 Sudoeste 0 974.2 -1.6 18
2019-09-26 15:00:00 32.1 6 Sudoeste 21 Sudoeste 0 974.6 -1.3 17
2019-09-26 14:00:00 30.1 10 Oeste 21 Sudoeste 0 975.2 -0.9 20
2019-09-26 13:00:00 29.1 3 Este 13 Sudeste 0 975.8 0.1 25
2019-09-26 12:00:00 24.7 6 Este 12 Este 0 975.9 0.6 37
2019-09-26 11:00:00 19.7 6 Nordeste 9 Este 0 976.1 1.1 50
2019-09-26 10:00:00 15.7 4 Este 7 Este 0 975.7 1.1 63
2019-09-26 09:00:00 12.1 2 Sudeste 7 Sudeste 0 975.3 0.7 77
2019-09-26 08:00:00 11.1 6 Este 9 Este 0 975 0.5 82
2019-09-26 07:00:00 12.6 2 Este 7 Nordeste 0 974.6 0.2 73
2019-09-26 06:00:00 12.9 5 Nordeste 6 Nordeste 0 974.6 0.1 72
2019-09-26 05:00:00 14.4 0 Calma 3 Sudoeste 0 974.5 -0.2 65
2019-09-26 04:00:00 14.7 2 Sudoeste 7 Nordeste 0 974.4 -0.5 64
2019-09-26 03:00:00 15.7 5 Nordeste 7 Nordeste 0 974.5 -0.4 61
2019-09-26 02:00:00 16.1 5 Este 9 Este 0 974.7 0 59
2019-09-26 01:00:00 17.5 8 Este 10 Nordeste 0 974.9 0.5 53
2019-09-26 00:00:00 18.3 7 Nordeste 10 Este 0 974.9 0.8 49
2019-09-25 23:00:00 21 6 Norte 17 Noroeste 0 974.7 0.8 43
2019-09-25 22:00:00 21.8 12 Noroeste 19 Noroeste 0 974.4 0.7 40
2019-09-25 21:00:00 22.7 12 Noroeste 19 Noroeste 0 974.1 0.4 36
2019-09-25 20:00:00 24.8 11 Noroeste 20 Noroeste 0 973.9 0 29
2019-09-25 19:00:00 26 14 Noroeste 26 Noroeste 0 973.7 -0.6 26
2019-09-25 18:00:00 27.1 12 Norte 25 Noroeste 0 973.7 -1.2 25
2019-09-25 17:00:00 27.5 10 Noroeste 29 Noroeste 0 973.9 -1.6 25
2019-09-25 16:00:00 27.8 12 Oeste 25 Noroeste 0 974.3 -1.6 26
2019-09-25 15:00:00 26.3 14 Noroeste 27 Noroeste 0 974.9 -1.4 28
2019-09-25 14:00:00 25.6 9 Nordeste 25 Noroeste 0 975.5 -1 29
2019-09-25 13:00:00 23.6 9 Noroeste 27 Oeste 0 975.9 -0.2 35
2019-09-25 12:00:00 22.4 4 Sur 11 Sudoeste 0 976.3 0.6 49
2019-09-25 11:00:00 18.3 4 Sudoeste 8 Este 0 976.5 1.3 71
2019-09-25 10:00:00 14.7 3 Este 9 Este 0 976.1 1 87
2019-09-25 09:00:00 12.6 3 Noroeste 8 Este 0 975.7 0.6 91
2019-09-25 08:00:00 12.9 3 Sudoeste 7 Oeste 0 975.2 -0.1 90
2019-09-25 07:00:00 13.7 4 Oeste 10 Oeste 0 975.1 -0.6 88
2019-09-25 06:00:00 14.3 7 Sudoeste 9 Sudoeste 0 975.1 -0.9 87
2019-09-25 05:00:00 15.3 0 Calma 6 Oeste 0 975.3 -0.6 84
2019-09-25 04:00:00 16.4 4 Oeste 6 Sudoeste 0 975.7 -0.6 79
2019-09-25 03:00:00 17.1 5 Oeste 14 Oeste 0 976 -0.1 74
2019-09-25 02:00:00 18 4 Sudoeste 10 Oeste 0 975.9 0 78
2019-09-25 01:00:00 19.4 9 Oeste 18 Oeste 0 976.3 0.7 73
2019-09-25 00:00:00 20 9 Oeste 25 Noroeste 0 976.1 0.8 75
2019-09-24 23:00:00 20.5 21 Noroeste 41 Noroeste 0 975.9 0.9 79
2019-09-24 22:00:00 22.4 24 Oeste 35 Oeste 0 975.6 0.9 70
2019-09-24 21:00:00 23.5 19 Oeste 37 Oeste 0 975.3 0.6 63
2019-09-24 20:00:00 25.4 19 Oeste 35 Oeste 0 975 0.1 52
2019-09-24 19:00:00 27.1 21 Oeste 34 Oeste 0 974.7 -0.6 46
2019-09-24 18:00:00 28.4 20 Oeste 32 Noroeste 0 974.7 -1.1 39
2019-09-24 17:00:00 29.6 17 Oeste 30 Oeste 0 974.9 -1.5 32
2019-09-24 16:00:00 30.8 13 Oeste 31 Oeste 0 975.3 -2 26
2019-09-24 15:00:00 30 16 Oeste 30 Oeste 0 975.8 -1.9 22
2019-09-24 14:00:00 29.2 14 Sudoeste 33 Sudoeste 0 976.4 -1.4 20
2019-09-24 13:00:00 27.2 8 Sudoeste 15 Sudoeste 0 977.3 0 31
2019-09-24 12:00:00 24.9 4 Sudeste 9 Sudeste 0 977.7 0.6 39
2019-09-24 11:00:00 19.8 3 Nordeste 9 Este 0 977.8 0.7 50
2019-09-24 10:00:00 15.3 6 Este 10 Este 0 977.3 0.7 63
2019-09-24 09:00:00 11.3 5 Este 9 Sudeste 0 977.1 0.6 79
2019-09-24 08:00:00 10.9 3 Sudeste 8 Este 0 977.1 0.5 78
2019-09-24 07:00:00 12.1 6 Este 9 Este 0 976.6 -0.1 72
2019-09-24 06:00:00 11.6 8 Este 10 Este 0 976.5 -0.4 76
2019-09-24 05:00:00 13.9 2 Sudoeste 6 Este 0 976.6 -0.3 64
2019-09-24 04:00:00 13.9 0 Calma 6 Sudeste 0 976.7 -0.3 65
2019-09-24 03:00:00 14.3 5 Oeste 6 Sudeste 0 976.9 -0.1 63
2019-09-24 02:00:00 15.4 5 Sudoeste 9 Este 0 976.9 -0.1 59
2019-09-24 01:00:00 17.4 2 Sur 8 Este 0 977 0.4 49
2019-09-24 00:00:00 17.8 6 Nordeste 9 Este 0 977 0.9 48
2019-09-23 23:00:00 19.6 4 Nordeste 7 Nordeste 0 977 1.1 41
2019-09-23 22:00:00 21.8 3 Nordeste 15 Noroeste 0 976.6 1.1 35
2019-09-23 21:00:00 23.1 12 Noroeste 20 Oeste 0 976.1 0.5 31
2019-09-23 20:00:00 25.1 15 Oeste 23 Oeste 0 975.9 0 26
2019-09-23 19:00:00 27.6 14 Oeste 24 Sudoeste 0 975.5 -0.5 23
2019-09-23 18:00:00 28.8 12 Sudoeste 24 Sur 0 975.6 -0.9 24
2019-09-23 17:00:00 29 13 Sudoeste 23 Sudoeste 0 975.9 -1.2 24
2019-09-23 16:00:00 28.4 9 Sur 27 Este 0 976 -1.5 27
2019-09-23 15:00:00 26.4 8 Este 18 Este 0 976.5 -1.1 30
2019-09-23 14:00:00 26.5 4 Sudoeste 14 Sur 0 977.1 -0.6 33
2019-09-23 13:00:00 23.5 8 Este 18 Sudeste 0 977.5 0.1 40
2019-09-23 12:00:00 20.7 8 Este 14 Este 0 977.6 0.3 51
2019-09-23 11:00:00 16.9 6 Este 9 Este 0 977.7 1.1 69
2019-09-23 10:00:00 12.8 5 Este 10 Este 0 977.4 1.5 82
2019-09-23 09:00:00 11.4 5 Este 9 Este 0 977.3 1.3 88
2019-09-23 08:00:00 10.3 6 Este 9 Este 0 976.6 1.1 89
2019-09-23 07:00:00 10.3 7 Este 9 Sudeste 0 975.9 0.2 90
2019-09-23 06:00:00 11.8 3 Este 6 Este 0 976 0.5 87
2019-09-23 05:00:00 11.8 5 Nordeste 6 Nordeste 0 975.5 -0.1 86
2019-09-23 04:00:00 13.4 0 Calma 5 Nordeste 0 975.7 -0.1 79
2019-09-23 03:00:00 13.9 3 Este 6 Sur 0 975.5 -0.2 76
2019-09-23 02:00:00 15.1 3 Sudoeste 11 Sudoeste 0 975.6 0.2 69
2019-09-23 01:00:00 15.8 6 Sudoeste 11 Sudoeste 0 975.8 1 66
2019-09-23 00:00:00 16.3 6 Sudoeste 14 Sudoeste 0 975.7 1.4 65
2019-09-22 23:00:00 17.1 8 Sudoeste 17 Noroeste 0 975.4 1.8 63
2019-09-22 22:00:00 19 13 Noroeste 18 Oeste 0 974.8 1.4 54
2019-09-22 21:00:00 19.6 15 Oeste 24 Oeste 0 974.3 1.3 56
2019-09-22 20:00:00 21.1 16 Oeste 24 Sudoeste 0 973.6 0.4 50
2019-09-22 19:00:00 22.5 14 Oeste 29 Sudoeste 0 973.4 -0.1 43
2019-09-22 18:00:00 23.8 19 Oeste 34 Sudoeste 0 973 -0.5 40
2019-09-22 17:00:00 24.3 19 Oeste 31 Oeste 0 973.2 -0.6 39
2019-09-22 16:00:00 23.3 19 Oeste 32 Sudoeste 0 973.5 -0.2 46
2019-09-22 15:00:00 23.1 19 Sudoeste 28 Oeste 0 973.5 -0.1 48
2019-09-22 14:00:00 21.4 17 Oeste 28 Oeste 0 973.8 0.5 55
2019-09-22 13:00:00 20.5 14 Oeste 26 Oeste 0 973.7 0.7 56
2019-09-22 12:00:00 20.1 3 Sudoeste 7 Oeste 0 973.6 1.2 66
2019-09-22 11:00:00 18.5 3 Sur 7 Sudoeste 0 973.3 1.5 70
2019-09-22 10:00:00 15.8 3 Sudeste 6 Este 0 973 2.1 83
2019-09-22 09:00:00 14.2 0 Calma 10 Oeste 0 972.4 2 87
2019-09-22 08:00:00 13 8 Oeste 13 Oeste 0 971.8 1.8 90
2019-09-22 07:00:00 13.6 5 Sudoeste 11 Oeste 0 970.9 0.9 90
2019-09-22 06:00:00 14.8 8 Sudoeste 27 Oeste 0 970.4 0.8 88
2019-09-22 05:00:00 16.6 19 Oeste 32 Oeste 0 970 0.3 88
2019-09-22 04:00:00 17.5 15 Sudoeste 33 Oeste 1 970 0.3 91
2019-09-22 03:00:00 17.5 9 Sudoeste 17 Sudoeste 1 969.6 0 91
2019-09-22 02:00:00 17.3 15 Sudoeste 22 Sudoeste 0.4 969.7 0.2 90
2019-09-22 01:00:00 17.7 17 Sudoeste 35 Sudoeste 0.2 969.7 0.4 84
2019-09-22 00:00:00 19.4 20 Sudoeste 31 Sudoeste 0 969.6 0.8 76
2019-09-21 23:00:00 19.5 16 Sudoeste 31 Sudoeste 0 969.5 0.7 78
2019-09-21 22:00:00 19.6 20 Sudoeste 33 Sudoeste 0 969.3 0.7 77
2019-09-21 21:00:00 20.2 19 Sudoeste 31 Sudoeste 0 968.8 0.4 77
2019-09-21 20:00:00 20.5 17 Sudoeste 46 Sudoeste 0 968.8 0.2 77
2019-09-21 19:00:00 22.4 29 Sudoeste 46 Sudoeste 0 968.6 -0.7 65
2019-09-21 18:00:00 22.7 24 Sudoeste 39 Sudoeste 0 968.4 -1 63
2019-09-21 17:00:00 23.6 30 Sudoeste 48 Sudoeste 0 968.6 -1.1 61
2019-09-21 16:00:00 22.6 19 Sudoeste 44 Sur 0 969.3 -0.8 70
2019-09-21 15:00:00 22.8 21 Sudoeste 35 Sudoeste 0 969.4 -0.9 68
2019-09-21 14:00:00 20.2 13 Sur 31 Sur 0.4 969.7 -0.2 81
2019-09-21 13:00:00 19.9 21 Sudoeste 35 Sudoeste 0 970.1 0.3 79
2019-09-21 12:00:00 19.7 15 Sudoeste 28 Sur 0 970.3 1 77
2019-09-21 11:00:00 19.1 4 Sur 13 Sudoeste 0 969.9 1.2 73
2019-09-21 10:00:00 18 2 Oeste 12 Sudoeste 0 969.8 0.8 74
2019-09-21 09:00:00 17.4 2 Oeste 10 Este 0 969.3 0.3 75
2019-09-21 08:00:00 16.3 6 Este 12 Este 0 968.7 -0.4 77
2019-09-21 07:00:00 15.9 3 Oeste 6 Sudeste 0 969 -0.5 77
2019-09-21 06:00:00 15.3 4 Sudeste 9 Sudoeste 0 969 -1 78
2019-09-21 05:00:00 15.8 5 Sudoeste 9 Sudoeste 0 969.1 -1 76
2019-09-21 04:00:00 16 4 Este 7 Sudoeste 0 969.5 -0.7 76
2019-09-21 03:00:00 16.6 2 Nordeste 3 Norte 0 970 -0.4 76
2019-09-21 02:00:00 17.3 0 Calma 6 Sudoeste 0 970.1 -0.3 73
2019-09-21 01:00:00 17.9 3 Sudoeste 6 Sur 0 970.2 0 69
2019-09-21 00:00:00 18.4 0 Calma 5 Sur 0 970.4 0.6 66
2019-09-20 23:00:00 18.9 3 Sudoeste 7 Sudoeste 0 970.4 0.6 62
2019-09-20 22:00:00 19.7 4 Oeste 13 Sur 0 970.2 0.6 57
2019-09-20 21:00:00 20.9 10 Sur 23 Sudoeste 0 969.8 0.2 52
2019-09-20 20:00:00 22 18 Sudoeste 28 Sudoeste 0 969.8 0 51
2019-09-20 19:00:00 23.9 15 Sur 29 Sur 0 969.6 -0.4 47
2019-09-20 18:00:00 22.8 12 Sudoeste 21 Sudoeste 0 969.6 -0.5 54
2019-09-20 17:00:00 22.4 17 Sudoeste 38 Sudoeste 0 969.8 -0.5 57
2019-09-20 16:00:00 25.1 29 Sudoeste 40 Sudoeste 0 970 -0.8 40
2019-09-20 15:00:00 26.9 17 Sudoeste 36 Sur 0 970.1 -1.3 37
2019-09-20 14:00:00 27 21 Sudoeste 32 Sur 0 970.3 -1.2 34
2019-09-20 13:00:00 26 19 Sudoeste 31 Sudoeste 0 970.8 -0.4 39
2019-09-20 12:00:00 22.6 9 Sudoeste 14 Sudoeste 0 971.4 0.8 52
2019-09-20 11:00:00 19.4 2 Este 6 Este 0 971.5 1.1 65
2019-09-20 10:00:00 16.5 4 Sudoeste 6 Sudoeste 0 971.2 0.7 77
2019-09-20 09:00:00 14.5 3 Sur 14 Este 0 970.6 -0.1 82
2019-09-20 08:00:00 14.3 8 Este 10 Este 0 970.4 -0.4 84
2019-09-20 07:00:00 15.6 2 Noroeste 4 Nordeste 0 970.5 -0.8 84
2019-09-20 06:00:00 15.4 2 Este 7 Oeste 0 970.7 -0.8 81
2019-09-20 05:00:00 16.6 6 Oeste 8 Oeste 0 970.8 -0.7 80
2019-09-20 04:00:00 16.8 7 Oeste 10 Oeste 0 971.3 -0.3 77
2019-09-20 03:00:00 17.8 4 Oeste 9 Sudoeste 0 971.5 -0.3 73
2019-09-20 02:00:00 18.5 8 Sudoeste 18 Oeste 0 971.5 -0.4 70
2019-09-20 01:00:00 19.3 12 Sudoeste 16 Oeste 0 971.6 0.3 64
2019-09-20 00:00:00 20.7 11 Sudoeste 23 Oeste 0 971.8 1.1 55
2019-09-19 23:00:00 21.8 11 Oeste 17 Oeste 0 971.9 1.5 48
2019-09-19 22:00:00 22.6 8 Sudoeste 23 Oeste 0 971.3 1.2 46
2019-09-19 21:00:00 24.4 15 Oeste 27 Oeste 0 970.7 0.6 41
2019-09-19 20:00:00 26.1 18 Oeste 33 Sudoeste 0 970.4 0 36
2019-09-19 19:00:00 28.6 24 Oeste 34 Sudoeste 0 970.1 -0.7 30
2019-09-19 18:00:00 30.9 18 Sudoeste 30 Sudoeste 0 970.1 -1.4 26
2019-09-19 17:00:00 30.9 13 Sudoeste 30 Sudoeste 0 970.4 -1.9 24
2019-09-19 16:00:00 31.1 5 Nordeste 28 Sur 0 970.8 -2.1 24
2019-09-19 15:00:00 31.7 6 Oeste 18 Norte 0 971.5 -1.8 25
2019-09-19 14:00:00 29.9 3 Noroeste 21 Sudoeste 0 972.3 -1.1 28
2019-09-19 13:00:00 27.5 6 Sudoeste 14 Sur 0 972.9 -0.4 35
2019-09-19 12:00:00 24.6 5 Sudoeste 9 Sudoeste 0 973.3 0.4 44
2019-09-19 11:00:00 21.3 3 Este 8 Este 0 973.4 0.6 54
2019-09-19 10:00:00 16.7 4 Este 9 Este 0 973.3 0.7 69
2019-09-19 09:00:00 14.3 4 Este 6 Este 0 972.9 0.4 80
2019-09-19 08:00:00 13 4 Este 5 Este 0 972.8 0.3 84
2019-09-19 07:00:00 13.8 2 Oeste 5 Nordeste 0 972.6 -0.2 83
2019-09-19 06:00:00 14.7 4 Este 5 Este 0 972.5 -0.7 79
2019-09-19 05:00:00 15.6 2 Este 6 Sudoeste 0 972.5 -0.7 76
2019-09-19 04:00:00 16 6 Sudoeste 9 Sudoeste 0 972.8 -0.6 74
2019-09-19 03:00:00 16.7 5 Sudoeste 10 Sudoeste 0 973.2 0 70
2019-09-19 02:00:00 17.1 10 Sudoeste 17 Sudoeste 0 973.2 0.2 67
2019-09-19 01:00:00 18.1 13 Sudoeste 16 Sudoeste 0 973.4 1 63
2019-09-19 00:00:00 19.6 13 Sudoeste 25 Oeste 0 973.2 1.4 57
2019-09-18 23:00:00 21.2 13 Oeste 26 Oeste 0 973 1.7 51
2019-09-18 22:00:00 23.5 17 Oeste 28 Oeste 0 972.4 1.3 41
2019-09-18 21:00:00 24.4 20 Oeste 28 Sudoeste 0 971.8 0.8 38
2019-09-18 20:00:00 26.5 19 Sudoeste 30 Sudoeste 0 971.3 0.1 34
2019-09-18 19:00:00 29.2 15 Sudoeste 26 Sudoeste 0 971.1 -0.4 29
2019-09-18 18:00:00 30.8 17 Sudoeste 30 Sudoeste 0 971 -1.1 27
2019-09-18 17:00:00 30.8 15 Sudoeste 31 Sudoeste 0 971.2 -1.3 29
2019-09-18 16:00:00 30.4 11 Oeste 26 Sur 0 971.5 -1.4 28
2019-09-18 15:00:00 30.9 14 Sudoeste 24 Sudoeste 0 972.1 -0.9 28
2019-09-18 14:00:00 30.4 8 Sudoeste 23 Sudoeste 0 972.5 -0.5 29
2019-09-18 13:00:00 27.5 13 Sudoeste 19 Sudoeste 0 972.9 0.1 36
2019-09-18 12:00:00 24.6 10 Sudoeste 17 Sudoeste 0 973 0.7 49
2019-09-18 11:00:00 21.4 2 Noroeste 7 Sudoeste 0 973 1.4 59
2019-09-18 10:00:00 18.5 2 Oeste 6 Este 0 972.8 1.8 67
2019-09-18 09:00:00 15.7 3 Sudeste 9 Oeste 0 972.3 1.3 75
2019-09-18 08:00:00 14.1 2 Noroeste 8 Oeste 0 971.6 0.5 82
2019-09-18 07:00:00 15.1 5 Oeste 7 Oeste 0 971 -0.1 80
2019-09-18 06:00:00 15.8 3 Este 6 Oeste 0 971 -0.3 76
2019-09-18 05:00:00 17.1 4 Oeste 8 Sudoeste 0 971.1 -0.6 73
2019-09-18 04:00:00 17.6 4 Nordeste 9 Noroeste 0 971.1 -0.7 70
2019-09-18 03:00:00 18.9 7 Noroeste 9 Noroeste 0 971.3 -0.5 65
2019-09-18 02:00:00 19.1 8 Oeste 13 Oeste 0 971.7 0 64
2019-09-18 01:00:00 20.3 11 Oeste 20 Sudoeste 0 971.8 0.8 61
2019-09-18 00:00:00 21.7 17 Sudoeste 25 Oeste 0 971.8 1.8 56
2019-09-17 23:00:00 23.7 20 Oeste 27 Sudoeste 0 971.7 2.4 50
2019-09-17 22:00:00 24.6 18 Sudoeste 30 Sudoeste 0 971 1.8 49
2019-09-17 21:00:00 26.2 19 Sudoeste 45 Sudoeste 0 970 0.6 43
2019-09-15 18:00:00 30.3 19 Sudoeste 33 Sudoeste 0 972.8 -1.2 25
2019-09-15 17:00:00 31.6 12 Sudoeste 28 Sudoeste 0 973 -1.4 25
2019-09-15 16:00:00 27.8 12 Oeste 29 Oeste 0 973.5 -1.5 34
2019-09-15 15:00:00 26.7 10 Oeste 23 Oeste 0 974 -1.3 38
2019-09-15 14:00:00 26.2 16 Oeste 23 Sudoeste 0 974.4 -0.9 42
2019-09-15 13:00:00 28.4 5 Oeste 13 Sudoeste 0 975 0 35
2019-09-15 12:00:00 26.3 6 Sudoeste 10 Este 0 975.3 0.6 53
2019-09-15 11:00:00 22 3 Este 9 Sudeste 0 975.3 0.9 63
2019-09-15 10:00:00 18 3 Este 8 Este 0 975 0.6 76
2019-09-15 09:00:00 15.2 6 Sudeste 9 Sudeste 0 974.7 0.5 84
2019-09-15 08:00:00 14.6 4 Oeste 9 Este 0 974.4 0.1 86
2019-09-15 07:00:00 15.1 5 Nordeste 12 Este 0 974.4 -0.2 84
2019-09-15 06:00:00 15.3 10 Este 11 Este 0 974.2 -0.5 82
2019-09-15 05:00:00 15.3 4 Sudeste 7 Sudeste 0 974.3 -0.7 83
2019-09-15 04:00:00 16 3 Sudoeste 8 Este 0 974.6 -0.8 83
2019-09-15 03:00:00 16.7 6 Este 10 Nordeste 0 974.7 -0.7 75
2019-09-15 02:00:00 16.6 8 Este 11 Este 0 975 -0.2 79
2019-09-15 01:00:00 18.2 3 Nordeste 9 Este 0 975.4 0.5 75
2019-09-15 00:00:00 18.1 3 Nordeste 12 Este 0 975.4 0.9 80